Time;durP1;ratioP1;P1;durP2;ratioP2;P2;SDS_P1;SDS_P2;PMS_P1;PMS_P2;Temp;Humidity;BMP_temperature;BMP_pressure;BME280_temperature;BME280_humidity;BME280_pressure;Samples;Min_cycle;Max_cycle;Signal;HPM_P1;HPM_P2
2021/12/11 00:01:38;;;;;;;9.07;5.45;;;;;;;-14.67;68.05;100618.50;5131756;27;20031;-58
2021/12/11 00:04:07;;;;;;;14.60;6.15;;;;;;;-14.71;68.22;100616.06;5151649;27;20046;-57
2021/12/11 00:06:39;;;;;;;7.30;5.10;;;;;;;-14.68;67.61;100621.91;5151981;27;20122;-58
2021/12/11 00:09:27;;;;;;;11.57;5.57;;;;;;;-14.79;68.65;100621.44;5152581;27;20345;-57
2021/12/11 00:12:07;;;;;;;8.93;4.82;;;;;;;-14.79;68.75;100623.97;5152953;27;20069;-57
2021/12/11 00:14:36;;;;;;;7.03;4.72;;;;;;;-14.81;68.59;100622.34;5153458;27;20442;-57
2021/12/11 00:17:02;;;;;;;7.45;5.85;;;;;;;-14.88;68.73;100619.13;5152700;27;20038;-56
2021/12/11 00:19:32;;;;;;;9.48;4.38;;;;;;;-14.82;68.40;100615.56;5153535;27;20042;-55
2021/12/11 00:22:08;;;;;;;17.67;6.60;;;;;;;-14.78;69.01;100622.25;5151822;27;20134;-57
2021/12/11 00:24:35;;;;;;;9.13;5.47;;;;;;;-14.70;69.31;100615.22;5152745;27;20488;-57
2021/12/11 00:27:07;;;;;;;15.18;7.93;;;;;;;-14.67;68.45;100610.03;5151094;27;20072;-58
2021/12/11 00:29:35;;;;;;;12.90;7.10;;;;;;;-14.63;68.29;100610.75;5151609;27;20558;-58
2021/12/11 00:32:08;;;;;;;11.60;5.60;;;;;;;-14.63;68.07;100613.31;5151905;27;20507;-57
2021/12/11 00:34:36;;;;;;;12.05;6.65;;;;;;;-14.70;68.14;100618.59;5150476;27;20043;-55
2021/12/11 00:37:05;;;;;;;11.40;6.57;;;;;;;-14.69;68.64;100617.69;5151842;27;20082;-59
2021/12/11 00:39:37;;;;;;;15.05;6.40;;;;;;;-14.70;68.47;100617.75;5134323;27;20034;-58
2021/12/11 00:42:07;;;;;;;13.68;7.50;;;;;;;-14.73;69.26;100612.78;5153142;27;20038;-57
2021/12/11 00:44:37;;;;;;;21.00;6.20;;;;;;;-14.71;68.69;100614.38;5152961;27;20411;-54
2021/12/11 00:47:27;;;;;;;10.18;5.35;;;;;;;-14.78;69.03;100607.81;5151944;27;20047;-58
2021/12/11 00:50:05;;;;;;;;;;;;;;;-14.74;69.15;100606.81;5148062;27;20042;-58
2021/12/11 00:52:39;;;;;;;12.20;5.78;;;;;;;-14.74;68.41;100604.28;5151621;27;19925;-58
2021/12/11 00:55:22;;;;;;;9.32;5.45;;;;;;;-14.73;69.04;100612.78;5133925;27;20059;-56
2021/12/11 00:57:49;;;;;;;8.13;4.40;;;;;;;-14.75;68.72;100612.81;5153041;27;20057;-58
2021/12/11 01:00:21;;;;;;;13.73;3.92;;;;;;;-14.81;68.42;100613.00;5152492;27;20172;-55
2021/12/11 01:02:54;;;;;;;17.05;5.80;;;;;;;-14.80;68.66;100604.47;5151032;27;20519;-58
2021/12/11 01:05:22;;;;;;;9.70;4.75;;;;;;;-14.77;68.99;100603.53;5151786;27;20095;-57
2021/12/11 01:07:48;;;;;;;6.05;3.85;;;;;;;-14.92;68.41;100603.13;5151624;27;20113;-56
2021/12/11 01:10:23;;;;;;;10.40;3.92;;;;;;;-14.86;68.85;100611.47;5153143;27;20046;-57
2021/12/11 01:12:57;;;;;;;7.32;4.25;;;;;;;-14.85;68.40;100608.03;5150905;27;20038;-57
2021/12/11 01:15:30;;;;;;;7.07;4.90;;;;;;;-14.85;68.75;100613.13;5152940;27;20496;-57
2021/12/11 01:18:22;;;;;;;10.55;5.60;;;;;;;-14.86;68.95;100606.38;5152858;27;20042;-57
2021/12/11 01:21:05;;;;;;;10.85;4.10;;;;;;;-14.81;68.62;100612.16;5151262;27;20050;-58
2021/12/11 01:26:11;;;;;;;8.40;4.38;;;;;;;-14.80;68.44;100617.19;5130996;28;20054;-58
2021/12/11 01:28:37;;;;;;;10.68;4.57;;;;;;;-14.81;67.78;100620.63;5132067;27;20042;-56
2021/12/11 01:31:07;;;;;;;16.42;6.75;;;;;;;-14.85;68.56;100611.44;5131874;27;20047;-56
2021/12/11 01:33:33;;;;;;;15.55;5.78;;;;;;;-14.84;68.13;100619.91;5132306;27;20453;-57
2021/12/11 01:35:59;;;;;;;6.65;3.72;;;;;;;-14.83;68.28;100621.56;5151023;27;20043;-58
2021/12/11 01:38:29;;;;;;;12.82;4.82;;;;;;;-14.83;68.14;100622.38;5152972;27;20047;-57
2021/12/11 01:40:59;;;;;;;12.40;6.45;;;;;;;-14.80;68.67;100617.19;5156902;27;20096;-57
2021/12/11 01:43:28;;;;;;;7.43;4.72;;;;;;;-14.77;68.57;100614.56;5156045;27;20079;-57
2021/12/11 01:45:57;;;;;;;13.07;6.23;;;;;;;-14.81;68.52;100623.16;5155212;27;20061;-59
2021/12/11 01:48:27;;;;;;;10.98;5.70;;;;;;;-14.82;68.35;100611.34;5155278;27;20043;-57
2021/12/11 01:51:11;;;;;;;6.93;5.18;;;;;;;-14.76;67.72;100628.09;5156604;27;20465;-57
2021/12/11 01:53:43;;;;;;;10.15;4.32;;;;;;;-14.80;68.03;100634.19;5154143;27;20090;-58
2021/12/11 01:56:16;;;;;;;12.45;7.00;;;;;;;-14.79;68.77;100636.69;5134053;27;20059;-57
2021/12/11 01:58:45;;;;;;;13.45;5.50;;;;;;;-14.72;68.29;100634.78;5135795;27;20039;-58
2021/12/11 02:01:20;;;;;;;7.25;5.13;;;;;;;-14.78;68.28;100627.34;5135248;27;20130;-57
2021/12/11 02:03:49;;;;;;;10.57;5.47;;;;;;;-14.78;68.17;100629.88;5155452;27;20126;-58
2021/12/11 02:06:15;;;;;;;8.68;5.07;;;;;;;-14.73;67.48;100630.59;5156006;27;20484;-56
2021/12/11 02:08:41;;;;;;;17.23;6.00;;;;;;;-14.77;67.70;100631.53;5154548;27;20035;-58
2021/12/11 02:11:14;;;;;;;11.73;5.45;;;;;;;-14.84;67.95;100635.16;5154548;27;20043;-59
2021/12/11 02:13:46;;;;;;;9.43;4.32;;;;;;;-14.87;68.05;100628.44;5154961;27;20035;-56
2021/12/11 02:16:31;;;;;;;11.25;5.80;;;;;;;-14.89;67.70;100632.75;5156301;27;20127;-56
2021/12/11 02:19:05;;;;;;;11.23;5.65;;;;;;;-14.88;67.17;100635.25;5137192;27;20047;-57
2021/12/11 02:21:38;;;;;;;7.93;4.55;;;;;;;-14.99;67.38;100637.28;5155825;27;20027;-57
2021/12/11 02:24:08;;;;;;;9.45;5.38;;;;;;;-15.04;68.21;100639.13;5154488;27;20070;-57
2021/12/11 02:26:37;;;;;;;8.13;4.60;;;;;;;-15.03;68.17;100637.41;5154298;27;20520;-57
2021/12/11 02:29:07;;;;;;;7.93;4.53;;;;;;;-15.08;68.67;100645.19;5154531;27;20404;-57
2021/12/11 02:31:46;;;;;;;12.63;6.68;;;;;;;-15.02;67.74;100639.91;5155016;27;20079;-55
2021/12/11 02:34:22;;;;;;;6.97;4.15;;;;;;;-15.01;67.66;100641.56;5155494;27;20077;-58
2021/12/11 02:36:54;;;;;;;9.90;5.72;;;;;;;-15.04;68.17;100645.91;5155224;27;20074;-59
2021/12/11 02:39:26;;;;;;;9.75;5.22;;;;;;;-15.06;67.78;100645.94;5155599;27;20042;-57
2021/12/11 02:41:57;;;;;;;8.80;5.20;;;;;;;-15.03;67.89;100638.22;5154830;27;20042;-58
2021/12/11 02:44:23;;;;;;;5.22;3.45;;;;;;;-15.13;68.16;100637.66;5155509;27;20074;-58
2021/12/11 02:46:55;;;;;;;12.10;5.75;;;;;;;-15.14;67.91;100638.56;5155051;27;20069;-58
2021/12/11 02:49:52;;;;;;;10.25;4.93;;;;;;;-15.16;67.88;100631.84;5154303;27;20060;-58
2021/12/11 02:52:21;;;;;;;12.93;5.32;;;;;;;-15.14;68.06;100625.00;5134331;27;20045;-57
2021/12/11 02:54:59;;;;;;;14.63;6.35;;;;;;;-15.15;68.10;100623.31;5155040;27;20078;-57
2021/12/11 02:57:32;;;;;;;10.82;4.30;;;;;;;-15.18;68.09;100628.50;5154814;27;20068;-56
2021/12/11 03:00:09;;;;;;;10.32;6.10;;;;;;;-15.23;67.95;100622.69;5155228;27;20049;-58
2021/12/11 03:02:36;;;;;;;10.88;5.93;;;;;;;-15.22;68.08;100616.75;5154707;27;20074;-57
2021/12/11 03:05:10;;;;;;;10.82;5.00;;;;;;;-15.23;68.04;100631.19;5155101;27;20480;-58
2021/12/11 03:07:38;;;;;;;10.70;5.43;;;;;;;-15.24;68.02;100637.13;5153058;27;20087;-57
2021/12/11 03:10:10;;;;;;;11.00;4.63;;;;;;;-15.29;68.27;100638.13;5153565;27;20039;-57
2021/12/11 03:12:36;;;;;;;9.13;5.22;;;;;;;-15.29;68.39;100636.47;5153471;27;20077;-56
2021/12/11 03:15:04;;;;;;;7.13;4.03;;;;;;;-15.27;68.17;100632.13;5154799;27;20480;-57
2021/12/11 03:17:30;;;;;;;17.20;6.43;;;;;;;-15.26;68.05;100630.44;5152878;27;20046;-57
2021/12/11 03:19:56;;;;;;;12.70;5.68;;;;;;;-15.25;67.89;100627.84;5153273;27;20043;-57
2021/12/11 03:22:30;;;;;;;13.95;7.15;;;;;;;-15.22;68.25;100621.84;5154514;27;20034;-56
2021/12/11 03:24:57;;;;;;;18.35;5.88;;;;;;;-15.19;68.04;100626.84;5154612;27;20045;-57
2021/12/11 03:27:24;;;;;;;12.32;5.35;;;;;;;-15.09;67.85;100635.03;5153563;27;20117;-57
2021/12/11 03:29:50;;;;;;;8.13;4.95;;;;;;;-15.11;68.02;100625.75;5152357;27;20095;-56
2021/12/11 03:32:16;;;;;;;15.40;6.47;;;;;;;-15.09;67.29;100629.94;5152717;27;20102;-58
2021/12/11 03:34:43;;;;;;;14.68;6.15;;;;;;;-15.05;67.28;100637.47;5153893;27;20042;-56
2021/12/11 03:37:11;;;;;;;6.28;3.85;;;;;;;-15.04;67.33;100639.13;5153403;27;20125;-59
2021/12/11 03:39:40;;;;;;;13.32;5.75;;;;;;;-15.02;67.19;100634.81;5154200;27;20054;-58
2021/12/11 03:42:11;;;;;;;10.18;5.57;;;;;;;-15.06;67.54;100629.84;5152520;27;20111;-58
2021/12/11 03:44:38;;;;;;;9.43;6.05;;;;;;;-15.03;67.25;100633.13;5151880;27;20129;-58
2021/12/11 03:47:11;;;;;;;14.68;5.18;;;;;;;-15.08;67.47;100639.25;5152510;27;20034;-58
2021/12/11 03:49:37;;;;;;;10.63;4.78;;;;;;;-15.11;67.35;100638.47;5153950;27;20039;-58
2021/12/11 03:52:06;;;;;;;8.60;5.20;;;;;;;-15.07;67.34;100631.56;5153912;27;20553;-56
2021/12/11 03:54:35;;;;;;;7.53;3.92;;;;;;;-15.12;67.54;100639.31;5153545;27;20098;-57
2021/12/11 03:57:02;;;;;;;9.10;4.95;;;;;;;-15.11;67.50;100632.56;5135310;27;20507;-58
2021/12/11 03:59:31;;;;;;;8.32;5.05;;;;;;;-15.15;67.74;100634.31;5153396;27;20470;-56
2021/12/11 04:02:03;;;;;;;11.00;4.50;;;;;;;-15.19;67.76;100630.22;5150749;27;20452;-55
2021/12/11 04:04:40;;;;;;;11.45;7.03;;;;;;;-15.14;67.64;100628.38;5153531;27;20041;-57
2021/12/11 04:07:09;;;;;;;8.70;5.22;;;;;;;-15.12;67.41;100629.16;5153541;27;20038;-57
2021/12/11 04:09:36;;;;;;;8.33;4.90;;;;;;;-15.12;67.34;100631.69;5153696;27;20046;-57
2021/12/11 04:12:03;;;;;;;9.32;5.25;;;;;;;-15.06;67.10;100615.41;5152093;27;20039;-57
2021/12/11 04:14:33;;;;;;;12.15;5.18;;;;;;;-15.06;67.21;100630.69;5153405;27;20080;-57
2021/12/11 04:17:01;;;;;;;12.18;5.05;;;;;;;-15.06;67.02;100617.97;5153627;27;20404;-58
2021/12/11 04:19:27;;;;;;;8.50;5.57;;;;;;;-15.08;67.69;100622.28;5151847;27;20046;-59
2021/12/11 04:21:54;;;;;;;10.02;5.85;;;;;;;-15.06;67.29;100617.97;5152582;27;20038;-56
2021/12/11 04:24:24;;;;;;;9.38;5.63;;;;;;;-15.13;67.49;100617.31;5153101;27;20047;-57
2021/12/11 04:26:52;;;;;;;14.57;5.78;;;;;;;-15.16;67.94;100619.13;5151611;27;20420;-57
2021/12/11 04:29:18;;;;;;;10.45;5.57;;;;;;;-15.17;67.65;100617.47;5151600;27;20043;-58
2021/12/11 04:31:46;;;;;;;10.02;5.05;;;;;;;-15.13;66.56;100617.31;5152727;27;20042;-56
2021/12/11 04:34:14;;;;;;;12.85;5.43;;;;;;;-15.20;67.70;100620.09;5151889;27;20058;-56
2021/12/11 04:36:44;;;;;;;9.07;5.38;;;;;;;-15.17;67.71;100617.47;5152819;27;20409;-57
2021/12/11 04:39:12;;;;;;;;;;;;;;;-15.16;68.48;100621.66;5151970;27;20042;-56
2021/12/11 04:41:51;;;;;;;13.15;5.43;;;;;;;-15.17;68.01;100625.09;5152873;27;20022;-57
2021/12/11 04:44:32;;;;;;;9.27;4.93;;;;;;;-15.20;67.99;100609.94;5151847;27;20043;-56
2021/12/11 04:46:58;;;;;;;8.45;4.53;;;;;;;-15.21;67.39;100613.34;5152807;27;20447;-57
2021/12/11 04:49:50;;;;;;;9.38;4.35;;;;;;;-15.22;68.05;100609.13;5151883;27;20396;-57
2021/12/11 04:52:18;;;;;;;17.13;6.72;;;;;;;-15.18;67.64;100613.25;5152639;27;20053;-57
2021/12/11 04:55:04;;;;;;;11.88;5.13;;;;;;;-15.21;67.65;100613.34;5151484;27;20082;-56
2021/12/11 05:00:20;;;;;;;11.38;5.75;;;;;;;-15.21;67.94;100618.41;5153171;27;20385;-56
2021/12/11 05:10:54;;;;;;;9.15;4.55;;;;;;;-15.16;67.43;100622.50;5153181;27;20115;-58
2021/12/11 05:13:22;;;;;;;7.40;3.78;;;;;;;-15.14;67.68;100625.84;5152990;27;20526;-57
2021/12/11 05:15:49;;;;;;;12.98;6.22;;;;;;;-15.27;68.06;100631.31;5155555;27;20050;-58
2021/12/11 05:18:23;;;;;;;19.95;4.85;;;;;;;-15.15;68.54;100625.88;5134825;27;20058;-58
2021/12/11 05:20:52;;;;;;;10.50;4.85;;;;;;;-15.19;67.72;100627.69;5156122;27;20491;-58
2021/12/11 05:23:18;;;;;;;8.17;5.17;;;;;;;-15.15;67.74;100626.69;5134920;27;20047;-59
2021/12/11 05:25:46;;;;;;;13.13;5.32;;;;;;;-15.06;67.49;100620.50;5136388;27;20035;-59
2021/12/11 05:28:12;;;;;;;11.85;5.85;;;;;;;-15.13;67.00;100619.88;5152075;27;20080;-58
2021/12/11 05:30:42;;;;;;;6.50;2.92;;;;;;;-15.10;66.96;100624.03;5154639;27;20453;-59
2021/12/11 05:33:08;;;;;;;14.45;5.82;;;;;;;-15.02;67.32;100622.09;5156396;27;20130;-58
2021/12/11 05:35:37;;;;;;;9.73;4.68;;;;;;;-15.04;66.71;100620.47;5156832;27;20126;-58
2021/12/11 05:38:05;;;;;;;7.72;4.07;;;;;;;-14.99;66.94;100616.94;5156168;27;20070;-57
2021/12/11 05:40:35;;;;;;;6.93;4.38;;;;;;;-15.03;67.15;100619.59;5156391;27;20031;-57
2021/12/11 05:43:01;;;;;;;20.88;7.07;;;;;;;-15.07;67.06;100623.13;5155103;27;20508;-59
2021/12/11 05:45:27;;;;;;;6.20;3.78;;;;;;;-15.05;66.90;100619.66;5156664;27;20066;-58
2021/12/11 05:47:53;;;;;;;8.95;5.38;;;;;;;-15.09;66.92;100624.84;5156424;27;20081;-58
2021/12/11 05:50:24;;;;;;;10.05;4.80;;;;;;;-15.17;67.15;100633.56;5156494;27;20039;-58
2021/12/11 05:52:51;;;;;;;11.07;4.65;;;;;;;-15.20;67.33;100635.38;5155352;27;20074;-59
2021/12/11 05:55:19;;;;;;;11.05;4.97;;;;;;;-15.07;66.95;100631.56;5155745;27;20099;-58
2021/12/11 05:57:57;;;;;;;5.03;4.40;;;;;;;-15.01;66.30;100626.31;5154852;27;20061;-59
2021/12/11 06:00:35;;;;;;;13.30;6.97;;;;;;;-15.00;66.58;100630.50;5156350;27;20062;-58
2021/12/11 06:03:03;;;;;;;15.38;5.70;;;;;;;-15.00;66.87;100625.41;5156158;27;20088;-58
2021/12/11 06:05:32;;;;;;;9.50;4.95;;;;;;;-14.99;66.67;100623.72;5136830;27;20062;-58
2021/12/11 06:07:58;;;;;;;17.73;6.35;;;;;;;-15.14;66.61;100586.84;5155037;27;20077;-59
2021/12/11 06:10:25;;;;;;;12.02;6.47;;;;;;;-14.91;66.19;100626.84;5137454;27;20066;-59
2021/12/11 06:12:54;;;;;;;9.25;4.93;;;;;;;-14.96;66.31;100626.19;5154533;27;20462;-59
2021/12/11 06:15:20;;;;;;;11.25;5.30;;;;;;;-15.03;66.58;100625.50;5156103;27;20030;-60
2021/12/11 06:17:46;;;;;;;9.80;6.07;;;;;;;-14.98;66.58;100638.09;5154371;27;20091;-57
2021/12/11 06:20:21;;;;;;;10.13;5.90;;;;;;;-14.94;66.33;100649.84;5154360;27;20062;-59
2021/12/11 06:22:48;;;;;;;7.13;4.47;;;;;;;-14.90;65.98;100637.00;5154333;27;20500;-58
2021/12/11 06:25:17;;;;;;;12.20;6.88;;;;;;;-14.94;66.33;100624.41;5154335;27;20042;-59
2021/12/11 06:27:44;;;;;;;15.07;6.18;;;;;;;-14.83;66.12;100634.28;5155361;27;20039;-57
2021/12/11 06:30:12;;;;;;;10.40;5.35;;;;;;;-14.82;66.21;100624.06;5153329;27;20075;-58
2021/12/11 06:32:38;;;;;;;11.15;4.78;;;;;;;-14.74;65.50;100639.09;5154941;27;20519;-57
2021/12/11 06:35:31;;;;;;;15.10;6.40;;;;;;;-14.74;65.53;100641.63;5155524;27;20043;-55
2021/12/11 06:37:57;;;;;;;13.50;6.65;;;;;;;-14.66;65.17;100632.88;5147710;27;20067;-57
2021/12/11 06:40:25;;;;;;;13.75;6.43;;;;;;;-14.55;65.09;100632.56;5155599;27;20133;-57
2021/12/11 06:42:51;;;;;;;14.90;6.78;;;;;;;-14.56;65.17;100628.31;5154166;27;20054;-57
2021/12/11 06:45:18;;;;;;;5.43;3.33;;;;;;;-14.66;65.43;100634.59;5154152;27;20038;-57
2021/12/11 06:47:44;;;;;;;11.23;6.30;;;;;;;-14.67;66.17;100626.13;5155112;27;20042;-59
2021/12/11 06:50:10;;;;;;;14.57;6.22;;;;;;;-14.63;65.85;100626.03;5153507;27;20075;-57
2021/12/11 06:52:36;;;;;;;12.82;6.07;;;;;;;-14.67;66.02;100625.31;5154908;27;20047;-59
2021/12/11 06:55:04;;;;;;;11.20;5.80;;;;;;;-14.61;66.45;100627.66;5154952;27;20154;-58
2021/12/11 06:57:30;;;;;;;10.23;6.72;;;;;;;-14.61;66.65;100627.66;5155140;27;20043;-56
2021/12/11 06:59:56;;;;;;;15.68;7.88;;;;;;;-14.48;66.00;100639.09;5155090;27;20045;-57
2021/12/11 07:02:22;;;;;;;9.20;4.55;;;;;;;-14.41;66.07;100624.44;5153750;27;20047;-60
2021/12/11 07:04:49;;;;;;;12.27;6.13;;;;;;;-14.37;65.58;100625.19;5153066;27;20403;-57
2021/12/11 07:07:21;;;;;;;16.63;5.75;;;;;;;-14.44;65.49;100625.38;5154659;27;20050;-59
2021/12/11 07:09:48;;;;;;;10.82;6.18;;;;;;;-14.33;66.55;100635.22;5153414;27;20034;-57
2021/12/11 07:12:13;;;;;;;13.13;6.85;;;;;;;-14.26;65.18;100633.31;5153798;27;20042;-59
2021/12/11 07:14:40;;;;;;;8.50;5.47;;;;;;;-14.28;65.95;100638.47;5154591;27;20554;-62
2021/12/11 07:17:05;;;;;;;16.92;6.35;;;;;;;-14.27;66.21;100639.28;5154777;27;20434;-60
2021/12/11 07:19:32;;;;;;;11.18;5.65;;;;;;;-14.20;66.02;100643.31;5154085;27;20165;-58
2021/12/11 07:21:58;;;;;;;15.20;6.05;;;;;;;-14.19;65.65;100633.06;5154172;27;20046;-59
2021/12/11 07:24:30;;;;;;;9.40;5.80;;;;;;;-14.31;65.18;100642.81;5154186;27;20043;-59
2021/12/11 07:26:57;;;;;;;12.68;5.80;;;;;;;-14.26;65.90;100640.97;5154399;27;20142;-59
2021/12/11 07:29:23;;;;;;;13.35;5.80;;;;;;;-14.23;65.86;100648.50;5152934;27;20035;-59
2021/12/11 07:31:50;;;;;;;10.85;5.65;;;;;;;-14.23;65.12;100644.25;5152937;27;20171;-60
2021/12/11 07:34:17;;;;;;;9.60;5.05;;;;;;;-14.09;65.97;100653.97;5153727;27;20069;-59
2021/12/11 07:36:44;;;;;;;6.93;4.22;;;;;;;-14.03;64.66;100647.84;5153870;27;20039;-59
2021/12/11 07:39:13;;;;;;;8.98;5.78;;;;;;;-13.94;64.34;100649.25;5153943;27;20038;-59
2021/12/11 07:41:39;;;;;;;5.38;4.00;;;;;;;-13.90;64.23;100649.13;5152671;27;20042;-58
2021/12/11 07:44:05;;;;;;;13.18;5.88;;;;;;;-13.87;65.34;100648.19;5152895;27;20532;-59
2021/12/11 07:46:31;;;;;;;11.38;6.75;;;;;;;-13.85;64.78;100643.84;5154132;27;20211;-58
2021/12/11 07:48:58;;;;;;;11.05;5.68;;;;;;;-13.84;64.85;100650.63;5153542;27;20404;-56
2021/12/11 07:51:27;;;;;;;8.30;5.05;;;;;;;-13.86;64.11;100648.13;5153438;27;20538;-59
2021/12/11 07:53:53;;;;;;;11.80;6.70;;;;;;;-13.85;65.49;100644.69;5133335;27;20043;-56
2021/12/11 07:56:20;;;;;;;10.20;4.47;;;;;;;-13.68;64.55;100640.72;5131311;27;20047;-59
2021/12/11 07:58:48;;;;;;;15.88;7.75;;;;;;;-13.66;64.42;100649.16;5141851;27;20129;-58
2021/12/11 08:01:14;;;;;;;9.88;5.45;;;;;;;-13.68;63.92;100646.66;5153321;27;20047;-59
2021/12/11 08:03:41;;;;;;;17.88;7.60;;;;;;;-13.64;65.16;100638.03;5153287;27;20416;-60
2021/12/11 08:06:08;;;;;;;13.57;7.07;;;;;;;-13.64;64.18;100643.13;5153407;27;20423;-60
2021/12/11 08:08:35;;;;;;;9.30;5.95;;;;;;;-13.47;64.44;100659.56;5151928;27;20072;-60
2021/12/11 08:11:04;;;;;;;14.32;7.13;;;;;;;-13.47;63.25;100649.34;5152694;27;20046;-59
2021/12/11 08:13:30;;;;;;;15.43;6.43;;;;;;;-13.51;63.97;100654.56;5152748;27;20042;-58
2021/12/11 08:15:57;;;;;;;19.77;7.88;;;;;;;-13.30;64.59;100662.34;5153497;27;20295;-59
2021/12/11 08:18:25;;;;;;;13.15;5.18;;;;;;;-13.22;64.37;100664.59;5152340;27;20062;-57
2021/12/11 08:20:51;;;;;;;14.00;6.93;;;;;;;-13.21;63.42;100664.53;5153339;27;20066;-61
2021/12/11 08:23:18;;;;;;;19.02;6.82;;;;;;;-13.10;63.45;100651.38;5151068;27;20043;-60
2021/12/11 08:25:46;;;;;;;25.73;7.05;;;;;;;-12.98;63.79;100656.03;5152895;27;20072;-60
2021/12/11 08:28:19;;;;;;;24.77;9.25;;;;;;;-12.87;63.59;100651.38;5135199;27;20496;-62
2021/12/11 08:30:48;;;;;;;18.48;7.22;;;;;;;-12.87;62.62;100659.03;5142223;27;20117;-60
2021/12/11 08:33:14;;;;;;;14.60;7.03;;;;;;;-12.87;62.22;100640.34;5151109;27;20281;-61
2021/12/11 08:35:42;;;;;;;16.02;8.48;;;;;;;-12.84;64.05;100647.88;5130008;27;20089;-58
2021/12/11 08:38:08;;;;;;;16.92;7.03;;;;;;;-12.87;63.04;100648.81;5140030;27;20452;-61
2021/12/11 08:40:38;;;;;;;18.30;9.23;;;;;;;-12.82;64.46;100651.22;5151023;27;20038;-58
2021/12/11 08:43:07;;;;;;;16.52;8.15;;;;;;;-12.75;63.24;100641.59;5152983;27;20035;-61
2021/12/11 08:45:45;;;;;;;23.30;8.40;;;;;;;-12.72;63.29;100644.03;5152719;27;20510;-58
2021/12/11 08:48:20;;;;;;;17.92;7.88;;;;;;;-12.63;62.16;100646.22;5152380;27;20465;-61
2021/12/11 08:50:51;;;;;;;18.30;8.93;;;;;;;-12.61;61.87;100639.34;5152868;27;20042;-58
2021/12/11 08:53:17;;;;;;;53.20;10.88;;;;;;;-12.50;62.97;100644.84;5153137;27;20046;-60
2021/12/11 08:55:46;;;;;;;16.08;7.68;;;;;;;-12.49;61.89;100636.31;5151876;27;20054;-61
2021/12/11 08:58:14;;;;;;;18.02;8.88;;;;;;;-12.41;61.78;100630.88;5153122;27;20043;-63
2021/12/11 09:00:50;;;;;;;26.08;7.45;;;;;;;-12.39;61.23;100624.81;5149354;27;20453;-63
2021/12/11 09:03:42;;;;;;;16.30;6.97;;;;;;;-12.39;62.77;100619.72;5151586;27;20157;-56
2021/12/11 09:06:13;;;;;;;12.65;7.50;;;;;;;-12.47;63.19;100616.66;5149477;27;20047;-56
2021/12/11 09:08:53;;;;;;;13.75;6.22;;;;;;;-12.47;62.31;100613.25;5149984;27;20043;-55
2021/12/11 09:11:24;;;;;;;18.15;5.68;;;;;;;-12.54;63.35;100615.22;5153110;27;20074;-57
2021/12/11 09:13:57;;;;;;;16.60;8.15;;;;;;;-12.56;63.28;100616.97;5152598;27;20046;-56
2021/12/11 09:16:28;;;;;;;17.00;7.63;;;;;;;-12.52;63.03;100615.16;5152689;27;20130;-55
2021/12/11 09:19:08;;;;;;;23.23;9.25;;;;;;;-12.43;63.52;100615.63;5151464;27;20042;-58
2021/12/11 09:21:44;;;;;;;10.65;6.45;;;;;;;-12.65;62.18;100600.28;5152984;27;20121;-55
2021/12/11 09:24:23;;;;;;;15.80;7.15;;;;;;;-12.52;63.15;100613.44;5152935;27;20107;-58
2021/12/11 09:27:28;;;;;;;16.35;9.40;;;;;;;-12.50;63.09;100600.59;5151260;27;20050;-57
2021/12/11 09:30:13;;;;;;;17.33;7.70;;;;;;;-12.55;63.44;100600.78;5152789;27;20037;-56
2021/12/11 09:32:55;;;;;;;13.90;6.82;;;;;;;-12.50;63.77;100598.84;5152676;27;20046;-56
2021/12/11 09:35:23;;;;;;;13.45;7.57;;;;;;;-12.44;63.21;100592.69;5152392;27;20035;-56
2021/12/11 09:37:55;;;;;;;11.48;7.22;;;;;;;-12.48;62.76;100597.09;5152863;27;20392;-53
2021/12/11 09:40:30;;;;;;;14.82;7.30;;;;;;;-12.38;63.35;100590.72;5152956;27;20495;-57
2021/12/11 09:42:55;;;;;;;13.43;7.03;;;;;;;-12.29;63.08;100586.13;5152862;27;20046;-54
2021/12/11 09:45:25;;;;;;;14.35;7.10;;;;;;;-12.16;63.80;100600.06;5133907;27;20039;-57
2021/12/11 09:48:01;;;;;;;13.63;7.43;;;;;;;-12.16;62.20;100597.50;5152675;27;20038;-57
2021/12/11 09:50:32;;;;;;;25.45;10.07;;;;;;;-12.04;62.68;100594.44;5151185;27;20420;-57
2021/12/11 09:52:59;;;;;;;14.13;8.77;;;;;;;-12.02;61.88;100592.66;5152201;27;20049;-58
2021/12/11 09:55:30;;;;;;;13.68;6.13;;;;;;;-12.03;62.36;100598.66;5152332;27;20558;-57
2021/12/11 09:58:00;;;;;;;17.90;8.70;;;;;;;-11.96;62.55;100594.13;5152250;27;20293;-56
2021/12/11 10:00:43;;;;;;;24.92;9.48;;;;;;;-11.96;62.80;100597.50;5152382;27;20099;-59
2021/12/11 10:03:11;;;;;;;16.55;6.25;;;;;;;-11.98;62.30;100594.19;5156195;27;20045;-58
2021/12/11 10:05:46;;;;;;;22.95;8.25;;;;;;;-11.90;62.29;100592.13;5156267;27;20118;-56
2021/12/11 10:08:29;;;;;;;19.98;8.13;;;;;;;-11.86;62.52;100590.28;5154887;27;20061;-59
2021/12/11 10:11:19;;;;;;;18.45;10.07;;;;;;;-11.76;62.30;100591.53;5154657;27;20118;-58
2021/12/11 10:14:17;;;;;;;;;;;;;;;-11.63;62.64;100591.00;5154899;27;20062;-55
2021/12/11 10:16:50;;;;;;;20.95;9.73;;;;;;;-11.70;62.81;100581.03;5155854;27;19923;-58
2021/12/11 10:19:18;;;;;;;22.20;11.55;;;;;;;-11.68;61.54;100576.66;5155666;27;20035;-55
2021/12/11 10:21:51;;;;;;;11.48;7.30;;;;;;;-11.67;61.79;100580.06;5155603;27;20411;-58
2021/12/11 10:24:21;;;;;;;17.95;8.63;;;;;;;-11.63;62.70;100573.91;5155618;27;20047;-55
2021/12/11 10:26:50;;;;;;;19.35;9.50;;;;;;;-11.67;62.44;100573.22;5155213;27;20080;-56
2021/12/11 10:29:16;;;;;;;14.27;7.68;;;;;;;-11.61;62.18;100578.97;5155050;27;20053;-54
2021/12/11 10:31:53;;;;;;;12.00;7.07;;;;;;;-11.58;62.16;100578.84;5153899;27;20038;-56
2021/12/11 10:34:23;;;;;;;24.58;10.23;;;;;;;-11.72;62.36;100564.91;5155237;27;20053;-57
2021/12/11 10:37:00;;;;;;;22.02;9.57;;;;;;;-11.65;62.93;100578.25;5155472;27;20045;-59
2021/12/11 10:39:27;;;;;;;22.02;10.13;;;;;;;-11.62;62.76;100575.56;5155535;27;20133;-57
2021/12/11 10:41:53;;;;;;;14.45;7.70;;;;;;;-11.66;62.25;100564.63;5155436;27;20176;-56
2021/12/11 10:44:33;;;;;;;24.55;9.45;;;;;;;-11.70;62.68;100568.25;5155461;27;20049;-57
2021/12/11 10:47:13;;;;;;;10.73;5.45;;;;;;;-11.75;63.71;100571.91;5155140;27;20039;-57
2021/12/11 10:49:40;;;;;;;15.52;8.63;;;;;;;-11.64;63.79;100574.00;5154762;27;20054;-58
2021/12/11 10:52:14;;;;;;;26.75;13.98;;;;;;;-11.53;62.58;100566.66;5153560;27;20111;-56
2021/12/11 10:54:40;;;;;;;23.02;12.43;;;;;;;-11.42;62.93;100567.00;5154825;27;20511;-55
2021/12/11 10:57:07;;;;;;;15.18;8.57;;;;;;;-11.41;62.35;100560.16;5154826;27;20119;-57
2021/12/11 10:59:37;;;;;;;25.73;9.98;;;;;;;-11.42;62.74;100556.78;5153700;27;20059;-57
2021/12/11 11:02:30;;;;;;;19.42;8.93;;;;;;;-11.50;63.58;100561.41;5154675;27;20099;-56
2021/12/11 11:05:11;;;;;;;21.05;9.90;;;;;;;-11.46;62.91;100558.66;5136214;27;20043;-57
2021/12/11 11:07:37;;;;;;;22.17;10.88;;;;;;;-11.37;62.81;100566.81;5154795;27;20462;-57
2021/12/11 11:10:08;;;;;;;22.20;10.25;;;;;;;-11.41;63.05;100563.56;5154957;27;20050;-57
2021/12/11 11:12:34;;;;;;;17.30;7.85;;;;;;;-11.44;62.77;100569.66;5153999;27;20042;-57
2021/12/11 11:15:00;;;;;;;18.83;8.25;;;;;;;-11.47;62.80;100567.25;5154951;27;20502;-58
2021/12/11 11:17:29;;;;;;;20.35;8.75;;;;;;;-11.39;62.86;100563.50;5154600;27;20043;-59
2021/12/11 11:19:57;;;;;;;12.20;6.50;;;;;;;-11.46;62.58;100568.88;5154189;27;20049;-58
2021/12/11 11:22:27;;;;;;;10.23;6.47;;;;;;;-11.53;63.28;100564.09;5153347;27;20103;-58
2021/12/11 11:25:16;;;;;;;31.55;9.38;;;;;;;-11.49;64.04;100574.13;5154639;27;20129;-57
2021/12/11 11:27:44;;;;;;;10.85;6.22;;;;;;;-11.46;63.37;100568.88;5152812;27;20503;-58
2021/12/11 11:30:16;;;;;;;19.42;9.52;;;;;;;-11.36;63.89;100564.19;5154501;27;20043;-55
2021/12/11 11:32:45;;;;;;;14.63;8.15;;;;;;;-11.30;63.00;100556.22;5152909;27;20099;-56
2021/12/11 11:35:15;;;;;;;27.92;10.70;;;;;;;-11.37;63.53;100554.84;5154501;27;20042;-56
2021/12/11 11:37:43;;;;;;;18.48;8.98;;;;;;;-11.44;63.55;100556.88;5154038;27;20530;-56
2021/12/11 11:40:13;;;;;;;24.33;10.85;;;;;;;-11.46;63.28;100560.38;5152760;27;20047;-55
2021/12/11 11:42:39;;;;;;;17.90;8.55;;;;;;;-11.53;63.91;100546.19;5153795;27;20046;-59